createdAt,value
2023-10-29T00:00:46.200Z,99151.09
2023-10-29T00:03:13.829Z,99155.22
2023-10-29T00:05:41.536Z,99154.88
2023-10-29T00:08:11.081Z,99139.84
2023-10-29T00:10:38.597Z,99138.91
2023-10-29T00:13:06.139Z,99136.34
2023-10-29T00:15:33.683Z,99133.56
2023-10-29T00:18:01.618Z,99139.88
2023-10-29T00:20:29.375Z,99132.50
2023-10-29T00:22:56.969Z,99128.50
2023-10-29T00:25:25.771Z,99126.06
2023-10-29T00:27:53.274Z,99129.72
2023-10-29T00:30:20.745Z,99132.22
2023-10-29T00:32:48.394Z,99122.84
2023-10-29T00:35:16.155Z,99125.03
2023-10-29T00:37:43.629Z,99111.91
2023-10-29T00:40:11.652Z,99116.38
2023-10-29T00:42:40.468Z,99117.97
2023-10-29T00:45:08.903Z,99112.81
2023-10-29T00:47:36.640Z,99102.06
2023-10-29T00:50:05.135Z,99113.25
2023-10-29T00:52:32.905Z,99104.88
2023-10-29T00:55:00.406Z,99107.16
2023-10-29T00:57:28.190Z,99117.69
2023-10-29T00:59:58.159Z,99112.91
2023-10-29T01:02:26.349Z,99116.31
2023-10-29T01:04:54.022Z,99116.59
2023-10-29T01:07:21.581Z,99126.44
2023-10-29T01:09:49.542Z,99124.97
2023-10-29T01:12:17.994Z,99120.09
2023-10-29T01:14:46.362Z,99121.00
2023-10-29T01:17:15.427Z,99111.78
2023-10-29T01:19:42.973Z,99113.72
2023-10-29T01:22:11.050Z,99105.72
2023-10-29T01:24:39.826Z,99101.03
2023-10-29T01:27:09.075Z,99105.88
2023-10-29T01:29:36.778Z,99099.50
2023-10-29T01:32:04.504Z,99107.56
2023-10-29T01:34:33.300Z,99099.88
2023-10-29T01:37:00.798Z,99102.38
2023-10-29T01:39:29.010Z,99104.38
2023-10-29T01:41:59.111Z,99098.44
2023-10-29T01:44:26.924Z,99101.63
2023-10-29T01:46:54.408Z,99098.84
2023-10-29T01:49:21.899Z,99098.91
2023-10-29T01:51:51.134Z,99091.38
2023-10-29T01:54:18.646Z,99099.38
2023-10-29T01:56:46.166Z,99102.22
2023-10-29T01:59:15.733Z,99096.22
2023-10-29T02:01:43.608Z,99100.66
2023-10-29T02:04:11.684Z,99091.72
2023-10-29T02:06:41.023Z,99095.06
2023-10-29T02:09:11.519Z,99091.09
2023-10-29T02:11:39.608Z,99083.88
2023-10-29T02:14:07.356Z,99089.13
2023-10-29T02:16:34.950Z,99094.31
2023-10-29T02:19:02.504Z,99089.16
2023-10-29T02:21:30.061Z,99088.47
2023-10-29T02:24:02.327Z,99090.41
2023-10-29T02:26:30.312Z,99086.88
2023-10-29T02:28:57.878Z,99082.91
2023-10-29T02:31:25.468Z,99087.31
2023-10-29T02:33:53.002Z,99085.25
2023-10-29T02:36:20.498Z,99094.09
2023-10-29T02:38:48.015Z,99088.03
2023-10-29T02:41:16.898Z,99075.34
2023-10-29T02:43:44.411Z,99082.41
2023-10-29T02:46:12.496Z,99082.38
2023-10-29T02:48:40.209Z,99094.09
2023-10-29T02:51:12.433Z,99070.13
2023-10-29T02:53:40.064Z,99075.72
2023-10-29T02:56:07.668Z,99073.00
2023-10-29T02:58:36.512Z,99074.94
2023-10-29T03:01:08.197Z,99072.91
2023-10-29T03:03:36.558Z,99073.72
2023-10-29T03:06:05.938Z,99072.25
2023-10-29T03:08:33.484Z,99079.56
2023-10-29T03:11:01.474Z,99076.78
2023-10-29T03:13:29.438Z,99084.13
2023-10-29T03:15:58.289Z,99068.06
2023-10-29T03:18:25.947Z,99076.44
2023-10-29T03:20:53.540Z,99077.34
2023-10-29T03:23:21.117Z,99077.72
2023-10-29T03:25:48.623Z,99082.47
2023-10-29T03:28:16.115Z,99084.03
2023-10-29T03:30:43.675Z,99069.31
2023-10-29T03:33:12.678Z,99071.75
2023-10-29T03:35:40.308Z,99067.88
2023-10-29T03:38:08.961Z,99071.72
2023-10-29T03:40:38.065Z,99061.78
2023-10-29T03:43:05.610Z,99062.97
2023-10-29T03:45:33.200Z,99052.56
2023-10-29T03:48:00.790Z,99053.41
2023-10-29T03:50:29.716Z,99046.25
2023-10-29T03:52:57.233Z,99046.72
2023-10-29T03:55:25.153Z,99042.66
2023-10-29T03:57:52.692Z,99046.34
2023-10-29T04:00:20.192Z,99044.97
2023-10-29T04:02:48.957Z,99045.09
2023-10-29T04:05:17.304Z,99043.13
2023-10-29T04:07:46.138Z,99043.94
2023-10-29T04:10:13.616Z,99034.78
2023-10-29T04:12:41.200Z,99033.16
2023-10-29T04:15:09.823Z,99025.19
2023-10-29T04:17:37.518Z,99036.34
2023-10-29T04:20:06.889Z,99031.22
2023-10-29T04:22:35.057Z,99031.63
2023-10-29T04:25:03.910Z,99022.81
2023-10-29T04:27:31.412Z,99021.25
2023-10-29T04:29:59.401Z,99031.28
2023-10-29T04:32:27.098Z,99028.47
2023-10-29T04:34:54.602Z,99036.09
2023-10-29T04:37:23.843Z,99030.91
2023-10-29T04:39:52.132Z,99020.50
2023-10-29T04:42:20.975Z,99022.53
2023-10-29T04:44:49.061Z,99030.84
2023-10-29T04:47:18.001Z,99020.44
2023-10-29T04:49:45.999Z,99022.84
2023-10-29T04:52:13.521Z,99016.03
2023-10-29T04:54:43.525Z,99007.66
2023-10-29T04:57:11.066Z,99003.69
2023-10-29T04:59:39.914Z,99003.34
2023-10-29T05:02:07.561Z,99000.13
2023-10-29T05:04:35.061Z,98989.66
2023-10-29T05:07:02.684Z,98985.78
2023-10-29T05:09:30.184Z,98983.78
2023-10-29T05:11:57.739Z,98982.53
2023-10-29T05:14:25.269Z,98986.56
2023-10-29T05:16:54.221Z,98983.41
2023-10-29T05:19:22.361Z,98973.47
2023-10-29T05:21:51.106Z,98983.47
2023-10-29T05:24:18.765Z,98976.72
2023-10-29T05:26:46.314Z,98979.13
2023-10-29T05:29:13.853Z,98967.13
2023-10-29T05:31:41.445Z,98967.13
2023-10-29T05:34:10.320Z,98963.56
2023-10-29T05:36:37.804Z,98964.78
2023-10-29T05:39:08.050Z,98956.75
2023-10-29T05:41:35.606Z,98951.13
2023-10-29T05:44:03.200Z,98959.16
2023-10-29T05:46:30.811Z,98955.56
2023-10-29T05:48:58.324Z,98964.38
2023-10-29T05:51:27.190Z,98956.34
2023-10-29T05:53:54.718Z,98961.56
2023-10-29T05:56:22.289Z,98955.97
2023-10-29T05:58:49.867Z,98963.59
2023-10-29T06:01:17.430Z,98964.38
2023-10-29T06:03:45.169Z,98961.63
2023-10-29T06:06:12.852Z,98964.81
2023-10-29T06:08:41.715Z,98960.41
2023-10-29T06:11:09.217Z,98958.78
2023-10-29T06:13:36.757Z,98956.78
2023-10-29T06:16:09.033Z,98953.97
2023-10-29T06:18:36.852Z,98950.41
2023-10-29T06:21:04.948Z,98954.41
2023-10-29T06:23:32.606Z,98942.81
2023-10-29T06:26:01.462Z,98945.66
2023-10-29T06:28:28.945Z,98951.25
2023-10-29T06:30:56.412Z,98954.88
2023-10-29T06:33:24.220Z,98944.84
2023-10-29T06:35:51.853Z,98937.63
2023-10-29T06:38:19.378Z,98942.44
2023-10-29T06:40:46.871Z,98928.81
2023-10-29T06:43:15.673Z,98925.22
2023-10-29T06:45:43.555Z,98933.66
2023-10-29T06:48:11.121Z,98930.41
2023-10-29T06:50:38.724Z,98920.44
2023-10-29T06:53:06.890Z,98937.25
2023-10-29T06:55:34.441Z,98942.88
2023-10-29T06:58:01.903Z,98955.31
2023-10-29T07:00:32.805Z,98950.50
2023-10-29T07:03:00.592Z,98950.91
2023-10-29T07:05:28.500Z,98946.88
2023-10-29T07:07:56.400Z,98933.66
2023-10-29T07:10:24.361Z,98930.03
2023-10-29T07:12:54.149Z,98935.66
2023-10-29T07:15:21.681Z,98939.25
2023-10-29T07:17:50.616Z,98940.09
2023-10-29T07:20:18.102Z,98942.06
2023-10-29T07:22:45.843Z,98939.69
2023-10-29T07:25:13.527Z,98948.47
2023-10-29T07:27:41.060Z,98948.09
2023-10-29T07:30:10.369Z,98956.91
2023-10-29T07:32:37.997Z,98946.47
2023-10-29T07:35:07.410Z,98953.31
2023-10-29T07:37:34.882Z,98941.66
2023-10-29T07:40:02.376Z,98949.31
2023-10-29T07:42:29.945Z,98942.47
2023-10-29T07:44:57.506Z,98948.91
2023-10-29T07:47:25.047Z,98946.09
2023-10-29T07:49:53.118Z,98946.06
2023-10-29T07:52:21.920Z,98947.72
2023-10-29T07:54:49.599Z,98957.31
2023-10-29T07:57:17.163Z,98954.13
2023-10-29T07:59:44.934Z,98950.50
2023-10-29T08:02:13.454Z,98960.13
2023-10-29T08:04:40.938Z,98966.97
2023-10-29T08:07:08.541Z,98958.94
2023-10-29T08:09:37.370Z,98964.53
2023-10-29T08:12:05.577Z,98960.97
2023-10-29T08:14:33.607Z,98964.94
2023-10-29T08:17:01.624Z,98955.72
2023-10-29T08:19:29.125Z,98957.31
2023-10-29T08:21:57.595Z,98969.78
2023-10-29T08:24:25.402Z,98968.13
2023-10-29T08:26:55.160Z,98970.97
2023-10-29T08:29:22.685Z,98973.78
2023-10-29T08:31:50.333Z,98986.22
2023-10-29T08:34:17.868Z,98988.66
2023-10-29T08:36:45.377Z,98990.25
2023-10-29T08:39:14.262Z,98985.03
2023-10-29T08:41:41.862Z,98986.59
2023-10-29T08:44:10.772Z,98975.38
2023-10-29T08:46:38.281Z,98991.03
2023-10-29T08:49:05.780Z,98991.44
2023-10-29T08:51:33.324Z,98998.66
2023-10-29T08:54:03.705Z,98996.25
2023-10-29T08:56:31.638Z,98989.81
2023-10-29T08:58:59.184Z,98988.63
2023-10-29T09:01:28.058Z,98979.78
2023-10-29T09:03:56.674Z,98974.13
2023-10-29T09:06:25.419Z,98974.16
2023-10-29T09:08:53.744Z,98968.50
2023-10-29T09:11:21.468Z,98964.13
2023-10-29T09:13:49.241Z,98956.94
2023-10-29T09:16:17.021Z,98958.16
2023-10-29T09:18:45.923Z,98959.34
2023-10-29T09:21:13.485Z,98958.13
2023-10-29T09:23:41.014Z,98942.03
2023-10-29T09:26:09.279Z,98956.09
2023-10-29T09:28:36.777Z,98951.66
2023-10-29T09:31:05.380Z,98944.78
2023-10-29T09:33:32.933Z,98940.78
2023-10-29T09:36:03.774Z,98938.72
2023-10-29T09:38:31.296Z,98944.03
2023-10-29T09:40:59.017Z,98942.38
2023-10-29T09:43:29.140Z,98943.97
2023-10-29T09:45:57.015Z,98943.22
2023-10-29T09:48:26.458Z,98949.22
2023-10-29T09:50:55.090Z,98949.97
2023-10-29T09:53:25.089Z,98959.09
2023-10-29T09:55:53.434Z,98947.00
2023-10-29T09:58:23.577Z,98961.44
2023-10-29T10:00:51.471Z,98954.97
2023-10-29T10:03:19.085Z,98963.44
2023-10-29T10:05:48.421Z,98958.97
2023-10-29T10:08:15.973Z,98970.66
2023-10-29T10:10:48.103Z,98971.72
2023-10-29T10:13:16.773Z,98987.25
2023-10-29T10:15:45.001Z,98981.00
2023-10-29T10:18:14.916Z,98990.19
2023-10-29T10:20:43.856Z,98986.16
2023-10-29T10:23:12.674Z,98998.19
2023-10-29T10:25:41.247Z,98995.81
2023-10-29T10:28:10.112Z,99015.31
2023-10-29T10:30:39.659Z,99016.00
2023-10-29T10:33:12.588Z,99010.84
2023-10-29T10:35:41.792Z,99000.81
2023-10-29T10:38:10.110Z,99002.06
2023-10-29T10:40:39.027Z,99003.09
2023-10-29T10:43:06.900Z,99007.50
2023-10-29T10:45:37.954Z,98997.56
2023-10-29T10:48:07.767Z,98991.38
2023-10-29T10:50:36.609Z,98994.25
2023-10-29T10:53:05.083Z,98995.09
2023-10-29T10:58:04.704Z,98991.56
2023-10-29T11:00:33.875Z,98995.97
2023-10-29T11:03:05.487Z,98994.38
2023-10-29T11:05:39.717Z,98987.09
2023-10-29T11:08:08.501Z,98988.75
2023-10-29T11:10:36.097Z,98985.09
2023-10-29T11:13:19.234Z,98971.38
2023-10-29T11:15:48.370Z,98959.78
2023-10-29T11:18:28.328Z,98962.03
2023-10-29T11:21:00.733Z,98955.50
2023-10-29T11:23:30.123Z,98958.00
2023-10-29T11:26:21.658Z,98946.63
2023-10-29T11:28:49.913Z,98956.06
2023-10-29T11:31:18.985Z,98958.28
2023-10-29T11:33:49.156Z,98949.44
2023-10-29T11:36:32.847Z,98942.53
2023-10-29T11:39:37.184Z,98945.75
2023-10-29T11:42:26.942Z,98944.22
2023-10-29T11:45:37.788Z,98934.91
2023-10-29T11:48:12.551Z,98924.69
2023-10-29T11:50:43.189Z,98930.84
2023-10-29T11:53:25.579Z,98938.50
2023-10-29T11:55:54.333Z,98939.81
2023-10-29T11:58:23.507Z,98938.16
2023-10-29T12:00:51.476Z,98933.78
2023-10-29T12:03:20.948Z,98926.94
2023-10-29T12:05:53.548Z,98930.50
2023-10-29T12:08:21.571Z,98935.53
2023-10-29T12:10:50.680Z,98934.25
2023-10-29T12:13:19.802Z,98926.59
2023-10-29T12:15:48.843Z,98932.66
2023-10-29T12:18:23.028Z,98926.88
2023-10-29T12:20:51.293Z,98925.63
2023-10-29T12:23:20.356Z,98931.59
2023-10-29T12:25:47.937Z,98924.91
2023-10-29T12:28:16.073Z,98936.91
2023-10-29T12:30:47.576Z,98940.81
2023-10-29T12:33:22.257Z,98938.34
2023-10-29T12:35:51.892Z,98939.19
2023-10-29T12:38:22.272Z,98936.78
2023-10-29T12:41:08.229Z,98937.25
2023-10-29T12:43:41.055Z,98933.91
2023-10-29T12:46:10.382Z,98938.47
2023-10-29T12:48:57.887Z,98939.59
2023-10-29T12:51:27.171Z,98931.41
2023-10-29T12:54:10.336Z,98925.78
2023-10-29T12:56:50.726Z,98918.66
2023-10-29T12:59:18.570Z,98920.19
2023-10-29T13:01:53.360Z,98917.78
2023-10-29T13:04:21.605Z,98915.75
2023-10-29T13:06:49.086Z,98914.22
2023-10-29T13:09:21.272Z,98917.44
2023-10-29T13:11:49.725Z,98919.44
2023-10-29T13:14:17.312Z,98921.91
2023-10-29T13:16:45.016Z,98931.94
2023-10-29T13:19:13.398Z,98944.34
2023-10-29T13:21:42.131Z,98937.94
2023-10-29T13:24:10.057Z,98936.69
2023-10-29T13:26:39.608Z,98937.06
2023-10-29T13:29:07.752Z,98942.69
2023-10-29T13:31:35.670Z,98945.97
2023-10-29T13:34:03.228Z,98944.81
2023-10-29T13:36:30.821Z,98944.88
2023-10-29T13:38:58.392Z,98946.84
2023-10-29T13:41:25.953Z,98950.91
2023-10-29T13:43:54.942Z,98944.47
2023-10-29T13:46:24.012Z,98945.69
2023-10-29T13:48:54.169Z,98944.56
2023-10-29T13:51:22.317Z,98931.97
2023-10-29T13:53:50.470Z,98930.50
2023-10-29T13:56:18.704Z,98931.28
2023-10-29T13:58:47.080Z,98935.34
2023-10-29T14:01:20.436Z,98937.75
2023-10-29T14:03:48.545Z,98951.41
2023-10-29T14:06:16.236Z,98955.03
2023-10-29T14:08:45.119Z,98959.41
2023-10-29T14:11:14.859Z,98961.06
2023-10-29T14:13:46.441Z,98958.16
2023-10-29T14:16:15.216Z,98945.34
2023-10-29T14:18:45.520Z,98944.22
2023-10-29T14:21:13.648Z,98930.91
2023-10-29T14:23:43.062Z,98920.50
2023-10-29T14:26:10.769Z,98905.28
2023-10-29T14:28:38.405Z,98916.41
2023-10-29T14:31:05.985Z,98918.44
2023-10-29T14:33:33.599Z,98920.38
2023-10-29T14:36:02.912Z,98917.06
2023-10-29T14:38:31.168Z,98917.47
2023-10-29T14:40:59.929Z,98905.72
2023-10-29T14:43:27.791Z,98915.00
2023-10-29T14:45:57.002Z,98905.75
2023-10-29T14:48:24.559Z,98910.59
2023-10-29T14:50:53.025Z,98904.25
2023-10-29T14:53:21.956Z,98913.47
2023-10-29T14:55:49.816Z,98903.00
2023-10-29T14:58:17.890Z,98902.66
2023-10-29T15:00:46.310Z,98892.22
2023-10-29T15:03:14.646Z,98881.75
2023-10-29T15:05:42.413Z,98887.41
2023-10-29T15:08:10.021Z,98889.53
2023-10-29T15:10:38.942Z,98875.88
2023-10-29T15:13:06.742Z,98867.44
2023-10-29T15:15:35.093Z,98865.03
2023-10-29T15:18:02.681Z,98862.59
2023-10-29T15:20:31.391Z,98872.69
2023-10-29T15:23:02.294Z,98867.56
2023-10-29T15:25:31.042Z,98866.34
2023-10-29T15:28:00.070Z,98862.34
2023-10-29T15:30:27.835Z,98867.16
2023-10-29T15:32:55.452Z,98863.13
2023-10-29T15:35:23.086Z,98858.34
2023-10-29T15:37:50.583Z,98847.94
2023-10-29T15:40:18.195Z,98845.13
2023-10-29T15:42:45.681Z,98842.31
2023-10-29T15:45:15.001Z,98847.19
2023-10-29T15:47:42.643Z,98854.41
2023-10-29T15:50:12.631Z,98854.03
2023-10-29T15:52:40.356Z,98855.13
2023-10-29T15:55:09.154Z,98861.19
2023-10-29T15:57:36.794Z,98854.03
2023-10-29T16:00:06.177Z,98858.44
2023-10-29T16:02:35.041Z,98868.88
2023-10-29T16:05:03.192Z,98871.69
2023-10-29T16:07:30.727Z,98865.72
2023-10-29T16:09:58.255Z,98863.25
2023-10-29T16:12:25.993Z,98861.31
2023-10-29T16:14:54.062Z,98858.00
2023-10-29T16:17:21.581Z,98844.38
2023-10-29T16:19:50.406Z,98853.63
2023-10-29T16:22:17.930Z,98851.22
2023-10-29T16:24:45.444Z,98864.00
2023-10-29T16:27:13.022Z,98857.63
2023-10-29T16:29:40.700Z,98865.66
2023-10-29T16:32:08.361Z,98868.09
2023-10-29T16:34:35.918Z,98866.50
2023-10-29T16:37:05.197Z,98855.19
2023-10-29T16:39:32.719Z,98863.31
2023-10-29T16:42:01.292Z,98880.19
2023-10-29T16:44:31.200Z,98869.31
2023-10-29T16:46:59.799Z,98875.72
2023-10-29T16:49:27.336Z,98861.75
2023-10-29T16:51:55.919Z,98856.50
2023-10-29T16:54:24.942Z,98850.50
2023-10-29T16:56:52.635Z,98851.66
2023-10-29T16:59:20.676Z,98844.06
2023-10-29T17:01:49.028Z,98831.63
2023-10-29T17:04:17.008Z,98838.81
2023-10-29T17:06:44.598Z,98848.84
2023-10-29T17:09:12.163Z,98850.84
2023-10-29T17:11:41.203Z,98856.84
2023-10-29T17:14:09.058Z,98865.28
2023-10-29T17:16:37.040Z,98865.66
2023-10-29T17:19:05.299Z,98864.88
2023-10-29T17:21:33.056Z,98873.72
2023-10-29T17:24:00.932Z,98882.16
2023-10-29T17:26:28.558Z,98877.31
2023-10-29T17:31:26.349Z,98883.75
2023-10-29T17:33:54.094Z,98875.25
2023-10-29T17:36:21.675Z,98876.03
2023-10-29T17:38:49.228Z,98868.44
2023-10-29T17:41:18.572Z,98870.03
2023-10-29T17:43:47.313Z,98867.59
2023-10-29T17:46:17.161Z,98869.25
2023-10-29T17:48:46.088Z,98868.38
2023-10-29T17:51:14.093Z,98876.81
2023-10-29T17:53:45.351Z,98883.59
2023-10-29T17:56:13.013Z,98884.00
2023-10-29T17:58:41.843Z,98899.66
2023-10-29T18:01:09.417Z,98885.97
2023-10-29T18:03:38.836Z,98883.59
2023-10-29T18:06:16.355Z,98886.03
2023-10-29T18:08:44.979Z,98886.41
2023-10-29T18:11:13.907Z,98884.47
2023-10-29T18:13:41.533Z,98887.25
2023-10-29T18:16:09.676Z,98889.63
2023-10-29T18:18:38.862Z,98884.44
2023-10-29T18:21:06.450Z,98891.72
2023-10-29T18:23:33.993Z,98887.69
2023-10-29T18:26:02.034Z,98877.25
2023-10-29T18:28:29.562Z,98877.66
2023-10-29T18:30:57.092Z,98880.13
2023-10-29T18:33:27.410Z,98885.31
2023-10-29T18:35:57.208Z,98872.06
2023-10-29T18:38:24.805Z,98873.22
2023-10-29T18:40:56.086Z,98875.66
2023-10-29T18:43:25.716Z,98868.75
2023-10-29T18:45:53.405Z,98859.16
2023-10-29T18:48:21.020Z,98872.06
2023-10-29T18:50:48.967Z,98878.84
2023-10-29T18:53:17.801Z,98887.25
2023-10-29T18:55:45.288Z,98875.66
2023-10-29T18:58:12.770Z,98887.72
2023-10-29T19:00:40.388Z,98878.91
2023-10-29T19:03:08.080Z,98886.50
2023-10-29T19:05:35.887Z,98882.09
2023-10-29T19:08:04.552Z,98894.50
2023-10-29T19:10:34.097Z,98904.56
2023-10-29T19:13:01.584Z,98911.44
2023-10-29T19:15:30.299Z,98924.63
2023-10-29T19:17:57.949Z,98938.72
2023-10-29T19:20:26.000Z,98952.34
2023-10-29T19:22:54.530Z,98959.16
2023-10-29T19:25:22.435Z,98973.25
2023-10-29T19:27:51.322Z,99001.00
2023-10-29T19:30:18.952Z,99004.13
2023-10-29T19:32:50.006Z,99025.50
2023-10-29T19:35:17.579Z,99018.66
2023-10-29T19:37:46.100Z,99015.44
2023-10-29T19:40:14.500Z,99043.59
2023-10-29T19:42:42.013Z,99030.75
2023-10-29T19:45:11.328Z,99035.97
2023-10-29T19:47:40.084Z,99050.00
2023-10-29T19:50:09.553Z,99050.81
2023-10-29T19:52:37.069Z,99054.44
2023-10-29T19:55:06.016Z,99039.56
2023-10-29T19:57:34.034Z,99051.19
2023-10-29T20:00:01.588Z,99066.88
2023-10-29T20:02:31.079Z,99064.44
2023-10-29T20:04:58.605Z,99066.84
2023-10-29T20:07:26.168Z,99064.47
2023-10-29T20:09:53.983Z,99072.47
2023-10-29T20:12:21.754Z,99079.31
2023-10-29T20:14:50.113Z,99086.44
2023-10-29T20:17:17.656Z,99088.47
2023-10-29T20:19:46.592Z,99111.81
2023-10-29T20:22:14.462Z,99112.22
2023-10-29T20:24:42.000Z,99119.44
2023-10-29T20:27:09.677Z,99131.38
2023-10-29T20:29:37.217Z,99136.66
2023-10-29T20:32:06.480Z,99137.06
2023-10-29T20:34:34.097Z,99142.19
2023-10-29T20:37:03.454Z,99143.78
2023-10-29T20:39:30.965Z,99139.00
2023-10-29T20:41:58.928Z,99130.16
2023-10-29T20:44:26.490Z,99127.00
2023-10-29T20:46:53.997Z,99133.38
2023-10-29T20:49:21.494Z,99140.13
2023-10-29T20:51:49.024Z,99136.97
2023-10-29T20:54:17.967Z,99143.34
2023-10-29T20:56:45.444Z,99143.19
2023-10-29T20:59:12.982Z,99145.28
2023-10-29T21:01:40.631Z,99147.78
2023-10-29T21:04:08.228Z,99149.38
2023-10-29T21:06:36.027Z,99153.81
2023-10-29T21:09:06.949Z,99154.22
2023-10-29T21:11:36.233Z,99149.88
2023-10-29T21:14:03.798Z,99145.41
2023-10-29T21:16:31.622Z,99129.03
2023-10-29T21:18:59.320Z,99130.63
2023-10-29T21:21:27.335Z,99129.03
2023-10-29T21:23:55.986Z,99135.06
2023-10-29T21:26:23.682Z,99143.47
2023-10-29T21:28:52.577Z,99150.28
2023-10-29T21:31:21.057Z,99158.69
2023-10-29T21:33:48.725Z,99171.06
2023-10-29T21:36:16.347Z,99179.91
2023-10-29T21:38:46.418Z,99175.09
2023-10-29T21:41:15.409Z,99167.44
2023-10-29T21:43:43.762Z,99158.63
2023-10-29T21:46:12.999Z,99153.03
2023-10-29T21:48:40.559Z,99145.78
2023-10-29T21:51:08.262Z,99144.56
2023-10-29T21:53:36.455Z,99142.16
2023-10-29T21:56:05.762Z,99146.97
2023-10-29T21:58:33.955Z,99140.13
2023-10-29T22:01:01.944Z,99137.69
2023-10-29T22:03:33.111Z,99129.31
2023-10-29T22:06:03.161Z,99136.50
2023-10-29T22:08:30.781Z,99127.25
2023-10-29T22:10:59.781Z,99120.81
2023-10-29T22:13:27.981Z,99126.78
2023-10-29T22:15:56.152Z,99128.31
2023-10-29T22:18:23.710Z,99134.75
2023-10-29T22:21:00.367Z,99124.72
2023-10-29T22:23:28.143Z,99117.91
2023-10-29T22:25:55.653Z,99118.72
2023-10-29T22:28:24.005Z,99134.22
2023-10-29T22:30:52.135Z,99123.00
2023-10-29T22:33:19.998Z,99117.75
2023-10-29T22:35:47.546Z,99118.13
2023-10-29T22:38:16.352Z,99123.63
2023-10-29T22:40:43.852Z,99112.03
2023-10-29T22:43:11.976Z,99120.06
2023-10-29T22:45:39.809Z,99112.25
2023-10-29T22:48:07.449Z,99118.00
2023-10-29T22:50:34.978Z,99125.78
2023-10-29T22:53:02.488Z,99122.56
2023-10-29T22:55:31.313Z,99112.66
2023-10-29T22:57:59.664Z,99088.56
2023-10-29T23:00:27.199Z,99089.75
2023-10-29T23:02:55.546Z,99096.25
2023-10-29T23:05:23.202Z,99092.59
2023-10-29T23:07:50.749Z,99102.59
2023-10-29T23:10:18.273Z,99111.88
2023-10-29T23:12:47.114Z,99117.63
2023-10-29T23:15:14.786Z,99115.56
2023-10-29T23:17:42.329Z,99111.19
2023-10-29T23:20:11.323Z,99114.84
2023-10-29T23:22:38.930Z,99122.47
2023-10-29T23:25:07.832Z,99122.03
2023-10-29T23:27:35.616Z,99125.34
2023-10-29T23:30:05.759Z,99134.03
2023-10-29T23:32:33.341Z,99138.56
2023-10-29T23:35:00.904Z,99140.13
2023-10-29T23:37:28.697Z,99128.63
2023-10-29T23:39:56.267Z,99137.84
2023-10-29T23:42:24.266Z,99140.16
2023-10-29T23:44:51.770Z,99146.59
2023-10-29T23:47:20.700Z,99139.06
2023-10-29T23:49:48.788Z,99130.66
2023-10-29T23:52:16.437Z,99124.63
2023-10-29T23:54:45.704Z,99118.69
2023-10-29T23:57:14.171Z,99117.03
2023-10-29T23:59:41.697Z,99123.50
